createdAt,value
2019-01-08T00:00:16.356Z,996.79
2019-01-08T00:01:16.343Z,996.75
2019-01-08T00:02:16.329Z,996.76
2019-01-08T00:03:16.332Z,996.80
2019-01-08T00:04:16.353Z,996.77
2019-01-08T00:05:16.304Z,996.77
2019-01-08T00:06:16.290Z,996.81
2019-01-08T00:07:23.267Z,996.79
2019-01-08T00:08:16.269Z,996.82
2019-01-08T00:09:16.260Z,996.83
2019-01-08T00:10:16.288Z,996.76
2019-01-08T00:11:23.228Z,996.77
2019-01-08T00:12:16.227Z,996.73
2019-01-08T00:13:16.214Z,996.73
2019-01-08T00:14:16.205Z,996.73
2019-01-08T00:15:16.193Z,996.67
2019-01-08T00:16:16.229Z,996.70
2019-01-08T00:17:16.176Z,996.64
2019-01-08T00:18:16.164Z,996.61
2019-01-08T00:19:16.153Z,996.60
2019-01-08T00:20:16.146Z,996.60
2019-01-08T00:21:16.128Z,996.61
2019-01-08T00:22:16.138Z,996.60
2019-01-08T00:23:16.109Z,996.63
2019-01-08T00:24:16.098Z,996.61
2019-01-08T00:25:16.090Z,996.61
2019-01-08T00:26:16.076Z,996.67
2019-01-08T00:27:16.066Z,996.61
2019-01-08T00:28:16.095Z,996.53
2019-01-08T00:29:16.045Z,996.52
2019-01-08T00:30:16.036Z,996.52
2019-01-08T00:31:16.023Z,996.51
2019-01-08T00:32:16.013Z,996.52
2019-01-08T00:33:16.002Z,996.50
2019-01-08T00:34:16.247Z,996.42
2019-01-08T00:35:15.980Z,996.44
2019-01-08T00:36:15.974Z,996.44
2019-01-08T00:37:15.962Z,996.42
2019-01-08T00:38:15.952Z,996.40
2019-01-08T00:39:15.944Z,996.43
2019-01-08T00:40:15.974Z,996.34
2019-01-08T00:41:15.915Z,996.31
2019-01-08T00:42:25.852Z,996.34
2019-01-08T00:43:15.897Z,996.32
2019-01-08T00:44:15.888Z,996.26
2019-01-08T00:45:15.876Z,996.28
2019-01-08T00:46:15.908Z,996.26
2019-01-08T00:47:15.855Z,996.25
2019-01-08T00:48:15.851Z,996.25
2019-01-08T00:49:15.834Z,996.23
2019-01-08T00:50:15.822Z,996.21
2019-01-08T00:51:15.893Z,996.27
2019-01-08T00:52:15.841Z,996.25
2019-01-08T00:53:15.793Z,996.21
2019-01-08T00:54:15.787Z,996.25
2019-01-08T00:55:15.768Z,996.17
2019-01-08T00:56:15.759Z,996.19
2019-01-08T00:57:15.810Z,996.23
2019-01-08T00:58:15.778Z,996.21
2019-01-08T00:59:15.730Z,996.22
2019-01-08T01:00:15.717Z,996.23
2019-01-08T01:01:15.712Z,996.20
2019-01-08T01:02:15.697Z,996.23
2019-01-08T01:03:15.684Z,996.19
2019-01-08T01:04:15.852Z,996.21
2019-01-08T01:05:15.664Z,996.20
2019-01-08T01:06:15.657Z,996.22
2019-01-08T01:07:15.643Z,996.15
2019-01-08T01:08:15.641Z,996.13
2019-01-08T01:09:15.623Z,996.09
2019-01-08T01:10:15.652Z,996.08
2019-01-08T01:11:15.602Z,996.11
2019-01-08T01:12:15.592Z,996.10
2019-01-08T01:13:27.113Z,996.10
2019-01-08T01:14:15.570Z,996.10
2019-01-08T01:15:15.562Z,996.09
2019-01-08T01:16:15.591Z,996.05
2019-01-08T01:17:15.536Z,996.08
2019-01-08T01:18:15.532Z,996.09
2019-01-08T01:19:15.515Z,996.09
2019-01-08T01:20:15.507Z,996.10
2019-01-08T01:21:15.503Z,996.10
2019-01-08T01:22:15.655Z,996.04
2019-01-08T01:23:15.472Z,996.05
2019-01-08T01:24:15.462Z,996.02
2019-01-08T01:25:15.453Z,996.02
2019-01-08T01:26:15.449Z,996.02
2019-01-08T01:27:15.430Z,996.06
2019-01-08T01:28:15.460Z,996.04
2019-01-08T01:29:15.411Z,995.94
2019-01-08T01:30:15.398Z,995.97
2019-01-08T01:31:15.391Z,996.01
2019-01-08T01:32:15.380Z,995.97
2019-01-08T01:33:15.373Z,995.94
2019-01-08T01:34:15.394Z,995.97
2019-01-08T01:35:15.348Z,996.03
2019-01-08T01:36:15.335Z,996.03
2019-01-08T01:37:15.325Z,995.97
2019-01-08T01:38:15.315Z,995.93
2019-01-08T01:39:15.309Z,995.97
2019-01-08T01:40:15.433Z,995.97
2019-01-08T01:41:15.283Z,995.95
2019-01-08T01:42:15.271Z,995.95
2019-01-08T01:43:15.263Z,995.97
2019-01-08T01:44:25.441Z,995.89
2019-01-08T01:45:15.242Z,995.90
2019-01-08T01:46:15.399Z,995.88
2019-01-08T01:47:15.220Z,995.87
2019-01-08T01:48:15.211Z,995.88
2019-01-08T01:49:15.205Z,995.88
2019-01-08T01:50:15.189Z,995.85
2019-01-08T01:51:15.179Z,995.89
2019-01-08T01:52:15.211Z,995.89
2019-01-08T01:53:15.155Z,995.87
2019-01-08T01:54:15.598Z,995.82
2019-01-08T01:55:15.135Z,995.80
2019-01-08T01:56:15.124Z,995.82
2019-01-08T01:57:15.115Z,995.79
2019-01-08T01:58:15.276Z,995.80
2019-01-08T01:59:15.096Z,995.81
2019-01-08T02:00:15.090Z,995.74
2019-01-08T02:01:15.073Z,995.73
2019-01-08T02:02:15.062Z,995.75
2019-01-08T02:03:15.094Z,995.75
2019-01-08T02:04:15.067Z,995.68
2019-01-08T02:05:15.032Z,995.64
2019-01-08T02:06:15.022Z,995.56
2019-01-08T02:07:15.087Z,995.58
2019-01-08T02:08:15.005Z,995.54
2019-01-08T02:09:14.987Z,995.52
2019-01-08T02:10:15.017Z,995.51
2019-01-08T02:11:14.964Z,995.50
2019-01-08T02:12:14.974Z,995.49
2019-01-08T02:13:14.945Z,995.45
2019-01-08T02:14:14.934Z,995.41
2019-01-08T02:15:25.303Z,995.42
2019-01-08T02:16:14.996Z,995.37
2019-01-08T02:17:14.903Z,995.39
2019-01-08T02:18:14.895Z,995.39
2019-01-08T02:19:14.880Z,995.41
2019-01-08T02:20:14.873Z,995.40
2019-01-08T02:21:14.902Z,995.35
2019-01-08T02:22:14.854Z,995.35
2019-01-08T02:23:14.838Z,995.35
2019-01-08T02:24:14.828Z,995.33
2019-01-08T02:25:14.818Z,995.26
2019-01-08T02:26:15.519Z,995.28
2019-01-08T02:27:14.840Z,995.26
2019-01-08T02:28:14.791Z,995.26
2019-01-08T02:29:16.581Z,995.27
2019-01-08T02:30:14.765Z,995.20
2019-01-08T02:31:14.764Z,995.25
2019-01-08T02:32:14.741Z,995.13
2019-01-08T02:33:14.757Z,995.19
2019-01-08T02:34:14.721Z,995.21
2019-01-08T02:35:14.716Z,995.17
2019-01-08T02:36:14.701Z,995.17
2019-01-08T02:37:14.720Z,995.13
2019-01-08T02:38:14.692Z,995.11
2019-01-08T02:39:14.796Z,995.13
2019-01-08T02:40:14.660Z,995.05
2019-01-08T02:41:14.744Z,995.05
2019-01-08T02:42:14.636Z,995.08
2019-01-08T02:43:14.628Z,995.05
2019-01-08T02:44:14.750Z,995.08
2019-01-08T02:45:14.722Z,995.05
2019-01-08T02:46:27.183Z,995.01
2019-01-08T02:47:14.585Z,995.01
2019-01-08T02:48:14.578Z,995.00
2019-01-08T02:49:14.568Z,994.97
2019-01-08T02:50:14.550Z,994.96
2019-01-08T02:51:14.584Z,995.02
2019-01-08T02:52:14.536Z,995.01
2019-01-08T02:53:14.531Z,994.98
2019-01-08T02:54:14.528Z,995.00
2019-01-08T02:55:14.503Z,994.89
2019-01-08T02:56:14.497Z,994.98
2019-01-08T02:57:14.518Z,994.95
2019-01-08T02:58:14.468Z,994.96
2019-01-08T02:59:14.458Z,995.04
2019-01-08T03:00:14.447Z,995.08
2019-01-08T03:01:14.441Z,994.99
2019-01-08T03:02:14.424Z,994.97
2019-01-08T03:03:14.457Z,994.82
2019-01-08T03:04:14.405Z,994.87
2019-01-08T03:05:14.395Z,994.83
2019-01-08T03:06:14.385Z,994.76
2019-01-08T03:07:14.378Z,994.80
2019-01-08T03:08:14.361Z,994.71
2019-01-08T03:09:14.423Z,994.74
2019-01-08T03:10:14.343Z,994.68
2019-01-08T03:11:14.332Z,994.71
2019-01-08T03:12:14.318Z,994.67
2019-01-08T03:13:14.315Z,994.64
2019-01-08T03:14:14.303Z,994.66
2019-01-08T03:15:14.332Z,994.63
2019-01-08T03:16:14.277Z,994.65
2019-01-08T03:17:25.600Z,994.62
2019-01-08T03:18:14.258Z,994.71
2019-01-08T03:19:14.247Z,994.70
2019-01-08T03:20:14.235Z,994.68
2019-01-08T03:21:14.381Z,994.63
2019-01-08T03:22:14.220Z,994.66
2019-01-08T03:23:14.211Z,994.67
2019-01-08T03:24:14.192Z,994.66
2019-01-08T03:25:14.189Z,994.63
2019-01-08T03:26:14.175Z,994.63
2019-01-08T03:27:14.203Z,994.59
2019-01-08T03:28:14.151Z,994.61
2019-01-08T03:29:14.141Z,994.61
2019-01-08T03:30:14.142Z,994.63
2019-01-08T03:31:14.129Z,994.63
2019-01-08T03:32:14.111Z,994.62
2019-01-08T03:33:14.142Z,994.62
2019-01-08T03:34:14.099Z,994.58
2019-01-08T03:35:14.083Z,994.64
2019-01-08T03:36:14.077Z,994.65
2019-01-08T03:37:14.056Z,994.63
2019-01-08T03:38:14.051Z,994.61
2019-01-08T03:39:14.075Z,994.63
2019-01-08T03:40:14.030Z,994.56
2019-01-08T03:41:14.014Z,994.53
2019-01-08T03:42:14.005Z,994.57
2019-01-08T03:43:13.996Z,994.49
2019-01-08T03:44:13.988Z,994.49
2019-01-08T03:45:14.148Z,994.48
2019-01-08T03:46:13.961Z,994.47
2019-01-08T03:47:13.950Z,994.47
2019-01-08T03:48:24.023Z,994.44
2019-01-08T03:49:13.931Z,994.39
2019-01-08T03:50:13.921Z,994.36
2019-01-08T03:51:13.925Z,994.35
2019-01-08T03:52:13.898Z,994.38
2019-01-08T03:53:13.893Z,994.34
2019-01-08T03:54:13.878Z,994.37
2019-01-08T03:55:13.867Z,994.25
2019-01-08T03:56:13.858Z,994.29
2019-01-08T03:57:13.901Z,994.29
2019-01-08T03:58:13.834Z,994.28
2019-01-08T03:59:13.824Z,994.27
2019-01-08T04:00:13.813Z,994.28
2019-01-08T04:01:13.808Z,994.26
2019-01-08T04:02:13.793Z,994.27
2019-01-08T04:03:13.801Z,994.24
2019-01-08T04:04:13.772Z,994.23
2019-01-08T04:05:13.763Z,994.20
2019-01-08T04:06:13.749Z,994.22
2019-01-08T04:07:13.740Z,994.27
2019-01-08T04:08:13.733Z,994.30
2019-01-08T04:09:13.760Z,994.28
2019-01-08T04:10:13.707Z,994.30
2019-01-08T04:11:13.696Z,994.29
2019-01-08T04:12:13.685Z,994.24
2019-01-08T04:13:13.678Z,994.21
2019-01-08T04:14:13.667Z,994.25
2019-01-08T04:15:13.718Z,994.26
2019-01-08T04:16:13.651Z,994.23
2019-01-08T04:17:13.636Z,994.18
2019-01-08T04:18:13.624Z,994.17
2019-01-08T04:19:23.589Z,994.21
2019-01-08T04:20:13.600Z,994.14
2019-01-08T04:21:13.643Z,994.17
2019-01-08T04:22:13.580Z,994.16
2019-01-08T04:23:13.571Z,994.14
2019-01-08T04:24:13.561Z,994.13
2019-01-08T04:25:13.548Z,994.12
2019-01-08T04:26:13.540Z,994.14
2019-01-08T04:27:13.578Z,994.21
2019-01-08T04:28:13.520Z,994.14
2019-01-08T04:29:13.511Z,994.23
2019-01-08T04:30:13.498Z,994.21
2019-01-08T04:31:13.492Z,994.21
2019-01-08T04:32:13.474Z,994.20
2019-01-08T04:33:13.515Z,994.20
2019-01-08T04:34:13.455Z,994.16
2019-01-08T04:35:13.448Z,994.14
2019-01-08T04:36:13.434Z,994.16
2019-01-08T04:37:13.424Z,994.14
2019-01-08T04:38:13.413Z,994.16
2019-01-08T04:39:13.501Z,994.09
2019-01-08T04:40:13.393Z,994.08
2019-01-08T04:41:13.385Z,994.02
2019-01-08T04:42:13.372Z,994.02
2019-01-08T04:43:13.362Z,994.04
2019-01-08T04:44:13.355Z,994.07
2019-01-08T04:45:14.775Z,994.03
2019-01-08T04:46:13.338Z,993.96
2019-01-08T04:47:13.323Z,993.97
2019-01-08T04:48:13.308Z,993.97
2019-01-08T04:49:13.297Z,993.95
2019-01-08T04:50:24.873Z,993.95
2019-01-08T04:51:13.277Z,993.96
2019-01-08T04:52:13.266Z,993.90
2019-01-08T04:53:13.255Z,993.91
2019-01-08T04:54:13.245Z,993.93
2019-01-08T04:55:13.237Z,993.92
2019-01-08T04:56:13.268Z,993.95
2019-01-08T04:57:13.214Z,993.90
2019-01-08T04:58:13.203Z,993.82
2019-01-08T04:59:13.204Z,993.80
2019-01-08T05:00:13.180Z,993.77
2019-01-08T05:01:13.172Z,993.78
2019-01-08T05:02:13.201Z,993.81
2019-01-08T05:03:13.150Z,993.72
2019-01-08T05:04:13.147Z,993.71
2019-01-08T05:05:13.133Z,993.68
2019-01-08T05:06:13.117Z,993.68
2019-01-08T05:07:13.109Z,993.67
2019-01-08T05:08:13.140Z,993.69
2019-01-08T05:09:13.086Z,993.71
2019-01-08T05:10:13.081Z,993.75
2019-01-08T05:11:13.065Z,993.69
2019-01-08T05:12:13.055Z,993.73
2019-01-08T05:13:13.045Z,993.73
2019-01-08T05:14:13.051Z,993.78
2019-01-08T05:15:13.020Z,993.78
2019-01-08T05:16:13.013Z,993.79
2019-01-08T05:17:13.084Z,993.75
2019-01-08T05:18:12.991Z,993.72
2019-01-08T05:19:12.980Z,993.71
2019-01-08T05:20:12.985Z,993.68
2019-01-08T05:21:23.469Z,993.68
2019-01-08T05:22:12.949Z,993.65
2019-01-08T05:23:12.937Z,993.65
2019-01-08T05:24:12.927Z,993.61
2019-01-08T05:25:12.918Z,993.60
2019-01-08T05:26:12.934Z,993.63
2019-01-08T05:27:12.965Z,993.61
2019-01-08T05:28:12.888Z,993.56
2019-01-08T05:29:12.874Z,993.59
2019-01-08T05:30:12.867Z,993.60
2019-01-08T05:31:12.859Z,993.66
2019-01-08T05:32:13.087Z,993.65
2019-01-08T05:33:12.833Z,993.61
2019-01-08T05:34:12.826Z,993.64
2019-01-08T05:35:12.812Z,993.64
2019-01-08T05:36:12.806Z,993.61
2019-01-08T05:37:12.792Z,993.63
2019-01-08T05:38:12.818Z,993.62
2019-01-08T05:39:12.769Z,993.57
2019-01-08T05:40:12.758Z,993.61
2019-01-08T05:41:12.747Z,993.60
2019-01-08T05:42:12.739Z,993.57
2019-01-08T05:43:12.729Z,993.59
2019-01-08T05:44:12.798Z,993.53
2019-01-08T05:45:12.707Z,993.58
2019-01-08T05:46:12.695Z,993.58
2019-01-08T05:47:12.685Z,993.58
2019-01-08T05:48:12.676Z,993.62
2019-01-08T05:49:12.667Z,993.59
2019-01-08T05:50:12.699Z,993.58
2019-01-08T05:51:12.649Z,993.63
2019-01-08T05:52:23.769Z,993.57
2019-01-08T05:53:12.621Z,993.57
2019-01-08T05:54:12.610Z,993.59
2019-01-08T05:55:12.603Z,993.55
2019-01-08T05:56:12.643Z,993.61
2019-01-08T05:57:12.584Z,993.61
2019-01-08T05:58:12.575Z,993.57
2019-01-08T05:59:12.561Z,993.59
2019-01-08T06:00:16.559Z,993.57
2019-01-08T06:01:12.541Z,993.56
2019-01-08T06:02:12.575Z,993.53
2019-01-08T06:03:12.518Z,993.55
2019-01-08T06:04:12.575Z,993.52
2019-01-08T06:05:12.496Z,993.52
2019-01-08T06:06:12.490Z,993.56
2019-01-08T06:07:12.475Z,993.57
2019-01-08T06:08:12.502Z,993.50
2019-01-08T06:09:12.479Z,993.54
2019-01-08T06:10:12.773Z,993.51
2019-01-08T06:11:12.433Z,993.51
2019-01-08T06:12:12.422Z,993.48
2019-01-08T06:13:12.443Z,993.46
2019-01-08T06:14:12.441Z,993.49
2019-01-08T06:15:12.401Z,993.45
2019-01-08T06:16:12.381Z,993.48
2019-01-08T06:17:12.369Z,993.50
2019-01-08T06:18:12.364Z,993.47
2019-01-08T06:19:12.399Z,993.50
2019-01-08T06:20:12.377Z,993.48
2019-01-08T06:21:12.323Z,993.45
2019-01-08T06:22:12.319Z,993.52
2019-01-08T06:23:22.894Z,993.48
2019-01-08T06:24:12.294Z,993.46
2019-01-08T06:25:12.326Z,993.51
2019-01-08T06:26:12.296Z,993.51
2019-01-08T06:27:12.283Z,993.52
2019-01-08T06:28:12.329Z,993.51
2019-01-08T06:29:12.239Z,993.52
2019-01-08T06:30:12.228Z,993.53
2019-01-08T06:31:12.221Z,993.54
2019-01-08T06:32:12.384Z,993.53
2019-01-08T06:33:12.211Z,993.47
2019-01-08T06:34:12.187Z,993.46
2019-01-08T06:35:12.180Z,993.48
2019-01-08T06:36:12.163Z,993.49
2019-01-08T06:37:12.154Z,993.49
2019-01-08T06:38:12.183Z,993.44
2019-01-08T06:39:12.136Z,993.49
2019-01-08T06:40:12.127Z,993.45
2019-01-08T06:41:12.113Z,993.41
2019-01-08T06:42:12.144Z,993.43
2019-01-08T06:43:12.092Z,993.40
2019-01-08T06:44:12.256Z,993.38
2019-01-08T06:45:12.077Z,993.38
2019-01-08T06:46:12.066Z,993.38
2019-01-08T06:47:12.051Z,993.40
2019-01-08T06:48:12.039Z,993.36
2019-01-08T06:49:12.027Z,993.32
2019-01-08T06:50:12.060Z,993.35
2019-01-08T06:51:12.009Z,993.33
2019-01-08T06:52:12.000Z,993.33
2019-01-08T06:53:12.013Z,993.36
2019-01-08T06:54:23.066Z,993.32
2019-01-08T06:55:11.990Z,993.34
2019-01-08T06:56:12.050Z,993.36
2019-01-08T06:57:11.943Z,993.30
2019-01-08T06:58:11.948Z,993.26
2019-01-08T06:59:11.929Z,993.31
2019-01-08T07:00:11.912Z,993.34
2019-01-08T07:01:11.902Z,993.31
2019-01-08T07:02:12.092Z,993.32
2019-01-08T07:03:11.890Z,993.32
2019-01-08T07:04:11.871Z,993.33
2019-01-08T07:05:11.903Z,993.33
2019-01-08T07:06:11.856Z,993.29
2019-01-08T07:07:11.873Z,993.29
2019-01-08T07:08:11.896Z,993.27
2019-01-08T07:09:11.819Z,993.31
2019-01-08T07:10:11.808Z,993.27
2019-01-08T07:11:11.800Z,993.29
2019-01-08T07:12:11.789Z,993.30
2019-01-08T07:13:11.776Z,993.32
2019-01-08T07:14:11.806Z,993.30
2019-01-08T07:15:11.788Z,993.30
2019-01-08T07:16:11.747Z,993.28
2019-01-08T07:17:11.730Z,993.30
2019-01-08T07:18:11.724Z,993.31
2019-01-08T07:19:11.712Z,993.31
2019-01-08T07:20:11.743Z,993.32
2019-01-08T07:21:11.856Z,993.34
2019-01-08T07:22:11.684Z,993.35
2019-01-08T07:23:11.681Z,993.36
2019-01-08T07:24:11.702Z,993.33
2019-01-08T07:25:21.934Z,993.30
2019-01-08T07:26:11.636Z,993.27
2019-01-08T07:27:16.415Z,993.24
2019-01-08T07:28:12.628Z,993.22
2019-01-08T07:29:11.605Z,993.24
2019-01-08T07:30:11.599Z,993.22
2019-01-08T07:31:11.634Z,993.21
2019-01-08T07:32:11.728Z,993.18
2019-01-08T07:33:11.596Z,993.19
2019-01-08T07:34:11.553Z,993.20
2019-01-08T07:35:11.546Z,993.17
2019-01-08T07:36:11.537Z,993.20
2019-01-08T07:37:11.690Z,993.13
2019-01-08T07:38:11.510Z,993.13
2019-01-08T07:39:11.508Z,993.15
2019-01-08T07:40:11.494Z,993.17
2019-01-08T07:41:11.480Z,993.17
2019-01-08T07:42:11.471Z,993.14
2019-01-08T07:43:11.497Z,993.13
2019-01-08T07:44:11.454Z,993.12
2019-01-08T07:45:11.435Z,993.15
2019-01-08T07:46:11.425Z,993.18
2019-01-08T07:47:11.415Z,993.18
2019-01-08T07:48:11.402Z,993.19
2019-01-08T07:49:11.430Z,993.17
2019-01-08T07:50:11.387Z,993.17
2019-01-08T07:51:11.377Z,993.15
2019-01-08T07:52:11.369Z,993.19
2019-01-08T07:53:11.358Z,993.15
2019-01-08T07:54:11.342Z,993.18
2019-01-08T07:55:11.372Z,993.15
2019-01-08T07:56:21.690Z,993.17
2019-01-08T07:57:11.310Z,993.14
2019-01-08T07:58:11.300Z,993.13
2019-01-08T07:59:11.289Z,993.13
2019-01-08T08:00:11.276Z,993.17
2019-01-08T08:01:11.325Z,993.14
2019-01-08T08:02:11.255Z,993.17
2019-01-08T08:03:11.320Z,993.14
2019-01-08T08:04:11.235Z,993.11
2019-01-08T08:05:11.246Z,993.15
2019-01-08T08:06:11.254Z,993.14
2019-01-08T08:07:11.243Z,993.07
2019-01-08T08:08:11.192Z,993.09
2019-01-08T08:09:11.183Z,993.06
2019-01-08T08:10:11.170Z,993.10
2019-01-08T08:11:11.162Z,993.05
2019-01-08T08:12:11.151Z,993.09
2019-01-08T08:13:11.181Z,993.03
2019-01-08T08:14:11.144Z,992.99
2019-01-08T08:15:11.120Z,993.00
2019-01-08T08:16:11.186Z,993.00
2019-01-08T08:17:11.097Z,993.06
2019-01-08T08:18:11.092Z,993.00
2019-01-08T08:19:11.115Z,993.00
2019-01-08T08:20:11.063Z,993.01
2019-01-08T08:21:11.058Z,993.02
2019-01-08T08:22:11.045Z,993.01
2019-01-08T08:23:11.034Z,993.01
2019-01-08T08:24:11.023Z,993.01
2019-01-08T08:25:11.079Z,993.03
2019-01-08T08:26:11.001Z,993.03
2019-01-08T08:27:21.436Z,993.02
2019-01-08T08:28:10.985Z,993.02
2019-01-08T08:29:10.971Z,992.99
2019-01-08T08:30:11.009Z,993.05
2019-01-08T08:31:11.159Z,992.97
2019-01-08T08:32:11.912Z,992.90
2019-01-08T08:33:10.926Z,992.99
2019-01-08T08:34:10.923Z,992.95
2019-01-08T08:35:10.906Z,992.98
2019-01-08T08:36:10.896Z,992.94
2019-01-08T08:37:12.002Z,992.95
2019-01-08T08:38:10.875Z,992.98
2019-01-08T08:39:10.901Z,992.93
2019-01-08T08:40:10.858Z,992.92
2019-01-08T08:41:10.845Z,992.93
2019-01-08T08:42:10.835Z,992.95
2019-01-08T08:43:10.901Z,992.88
2019-01-08T08:44:10.812Z,992.88
2019-01-08T08:45:10.799Z,992.93
2019-01-08T08:46:10.857Z,992.93
2019-01-08T08:47:10.793Z,992.87
2019-01-08T08:48:10.770Z,992.87
2019-01-08T08:49:10.805Z,992.88
2019-01-08T08:50:10.746Z,992.88
2019-01-08T08:51:10.748Z,992.88
2019-01-08T08:52:10.754Z,992.92
2019-01-08T08:53:10.718Z,992.95
2019-01-08T08:54:10.705Z,992.94
2019-01-08T08:55:10.737Z,993.00
2019-01-08T08:56:10.682Z,993.01
2019-01-08T08:57:10.673Z,993.01
2019-01-08T08:58:21.968Z,993.02
2019-01-08T08:59:10.654Z,992.97
2019-01-08T09:00:10.640Z,993.00
2019-01-08T09:01:10.752Z,993.00
2019-01-08T09:02:10.621Z,992.99
2019-01-08T09:03:10.606Z,992.89
2019-01-08T09:04:10.601Z,992.88
2019-01-08T09:05:10.586Z,992.92
2019-01-08T09:06:10.577Z,992.83
2019-01-08T09:07:10.828Z,992.87
2019-01-08T09:08:10.557Z,992.89
2019-01-08T09:09:10.547Z,992.87
2019-01-08T09:10:10.536Z,992.84
2019-01-08T09:11:10.525Z,992.89
2019-01-08T09:12:10.519Z,992.89
2019-01-08T09:13:10.541Z,992.86
2019-01-08T09:14:10.490Z,992.92
2019-01-08T09:15:10.480Z,992.88
2019-01-08T09:16:10.472Z,992.84
2019-01-08T09:17:10.463Z,992.84
2019-01-08T09:18:10.455Z,992.83
2019-01-08T09:19:10.499Z,992.86
2019-01-08T09:20:10.437Z,992.83
2019-01-08T09:21:10.425Z,992.85
2019-01-08T09:22:10.489Z,992.80
2019-01-08T09:23:10.396Z,992.80
2019-01-08T09:24:10.399Z,992.81
2019-01-08T09:25:10.504Z,992.80
2019-01-08T09:26:10.396Z,992.80
2019-01-08T09:27:10.359Z,992.80
2019-01-08T09:28:10.342Z,992.79
2019-01-08T09:29:20.650Z,992.77
2019-01-08T09:30:10.324Z,992.77
2019-01-08T09:31:15.277Z,992.80
2019-01-08T09:32:11.314Z,992.80
2019-01-08T09:33:10.288Z,992.81
2019-01-08T09:34:10.282Z,992.81
2019-01-08T09:35:10.268Z,992.75
2019-01-08T09:36:10.259Z,992.68
2019-01-08T09:37:10.506Z,992.66
2019-01-08T09:38:10.236Z,992.73
2019-01-08T09:39:10.225Z,992.75
2019-01-08T09:40:10.216Z,992.75
2019-01-08T09:41:10.202Z,992.73
2019-01-08T09:42:10.194Z,992.74
2019-01-08T09:43:10.233Z,992.72
2019-01-08T09:44:10.179Z,992.72
2019-01-08T09:45:10.198Z,992.72
2019-01-08T09:46:10.149Z,992.71
2019-01-08T09:47:10.151Z,992.65
2019-01-08T09:48:10.130Z,992.67
2019-01-08T09:49:10.167Z,992.68
2019-01-08T09:50:10.116Z,992.60
2019-01-08T09:51:10.098Z,992.60
2019-01-08T09:52:10.091Z,992.60
2019-01-08T09:53:10.083Z,992.61
2019-01-08T09:54:10.073Z,992.61
2019-01-08T09:55:10.260Z,992.58
2019-01-08T09:56:10.045Z,992.55
2019-01-08T09:57:10.094Z,992.54
2019-01-08T09:58:10.024Z,992.53
2019-01-08T09:59:10.013Z,992.54
2019-01-08T10:00:22.026Z,992.49
2019-01-08T10:01:09.992Z,992.54
2019-01-08T10:02:09.979Z,992.45
2019-01-08T10:03:09.969Z,992.51
2019-01-08T10:04:09.968Z,992.46
2019-01-08T10:05:09.946Z,992.47
2019-01-08T10:06:09.979Z,992.41
2019-01-08T10:07:09.926Z,992.43
2019-01-08T10:08:09.931Z,992.40
2019-01-08T10:09:09.905Z,992.42
2019-01-08T10:10:09.896Z,992.38
2019-01-08T10:11:09.887Z,992.41
2019-01-08T10:12:09.927Z,992.41
2019-01-08T10:13:09.873Z,992.37
2019-01-08T10:14:09.854Z,992.41
2019-01-08T10:15:09.840Z,992.39
2019-01-08T10:16:10.110Z,992.39
2019-01-08T10:17:09.821Z,992.41
2019-01-08T10:18:09.848Z,992.45
2019-01-08T10:19:09.832Z,992.40
2019-01-08T10:20:09.791Z,992.45
2019-01-08T10:21:09.779Z,992.43
2019-01-08T10:22:09.774Z,992.38
2019-01-08T10:23:10.411Z,992.35
2019-01-08T10:24:09.768Z,992.36
2019-01-08T10:25:09.738Z,992.39
2019-01-08T10:26:09.783Z,992.37
2019-01-08T10:27:09.739Z,992.37
2019-01-08T10:28:09.705Z,992.34
2019-01-08T10:29:09.699Z,992.34
2019-01-08T10:30:11.476Z,992.31
2019-01-08T10:31:21.434Z,992.34
2019-01-08T10:32:09.665Z,992.31
2019-01-08T10:33:09.647Z,992.35
2019-01-08T10:34:09.643Z,992.29
2019-01-08T10:35:09.633Z,992.33
2019-01-08T10:36:09.638Z,992.31
2019-01-08T10:37:09.607Z,992.33
2019-01-08T10:38:09.611Z,992.33
2019-01-08T10:39:09.585Z,992.27
2019-01-08T10:40:09.591Z,992.32
2019-01-08T10:41:09.579Z,992.27
2019-01-08T10:42:09.619Z,992.33
2019-01-08T10:43:09.548Z,992.27
2019-01-08T10:44:09.532Z,992.27
2019-01-08T10:45:09.531Z,992.23
2019-01-08T10:46:09.510Z,992.22
2019-01-08T10:47:09.498Z,992.20
2019-01-08T10:48:09.538Z,992.22
2019-01-08T10:49:09.478Z,992.19
2019-01-08T10:50:09.519Z,992.22
2019-01-08T10:51:09.482Z,992.20
2019-01-08T10:52:09.445Z,992.25
2019-01-08T10:53:09.434Z,992.19
2019-01-08T10:54:09.547Z,992.21
2019-01-08T10:55:09.414Z,992.25
2019-01-08T10:56:09.403Z,992.25
2019-01-08T10:57:09.403Z,992.24
2019-01-08T10:58:09.391Z,992.25
2019-01-08T10:59:09.371Z,992.19
2019-01-08T11:00:09.406Z,992.21
2019-01-08T11:01:09.347Z,992.21
2019-01-08T11:02:20.633Z,992.19
2019-01-08T11:03:09.327Z,992.17
2019-01-08T11:04:09.326Z,992.17
2019-01-08T11:05:09.305Z,992.18
2019-01-08T11:06:09.480Z,992.10
2019-01-08T11:07:09.284Z,992.11
2019-01-08T11:08:09.277Z,992.11
2019-01-08T11:09:09.267Z,992.05
2019-01-08T11:10:09.254Z,992.08
2019-01-08T11:11:09.358Z,992.05
2019-01-08T11:12:09.288Z,992.05
2019-01-08T11:13:09.220Z,992.05
2019-01-08T11:14:09.211Z,992.06
2019-01-08T11:15:09.463Z,992.04
2019-01-08T11:16:12.065Z,991.99
2019-01-08T11:17:09.178Z,992.01
2019-01-08T11:18:09.478Z,991.99
2019-01-08T11:19:09.176Z,992.01
2019-01-08T11:20:09.152Z,991.99
2019-01-08T11:21:09.143Z,991.93
2019-01-08T11:22:09.126Z,991.98
2019-01-08T11:23:09.112Z,991.95
2019-01-08T11:24:09.198Z,991.94
2019-01-08T11:25:09.092Z,991.96
2019-01-08T11:26:09.080Z,991.90
2019-01-08T11:27:09.068Z,991.88
2019-01-08T11:28:09.143Z,991.88
2019-01-08T11:29:09.050Z,991.87
2019-01-08T11:30:09.253Z,991.92
2019-01-08T11:31:09.027Z,991.92
2019-01-08T11:32:09.016Z,991.89
2019-01-08T11:33:19.572Z,991.91
2019-01-08T11:34:08.993Z,991.91
2019-01-08T11:35:08.994Z,991.85
2019-01-08T11:36:09.016Z,991.86
2019-01-08T11:37:08.968Z,991.86
2019-01-08T11:38:08.963Z,991.88
2019-01-08T11:39:10.638Z,991.91
2019-01-08T11:40:08.972Z,991.91
2019-01-08T11:41:08.934Z,991.89
2019-01-08T11:42:09.060Z,991.88
2019-01-08T11:43:08.896Z,991.84
2019-01-08T11:44:08.887Z,991.83
2019-01-08T11:45:08.889Z,991.89
2019-01-08T11:46:08.869Z,991.87
2019-01-08T11:47:08.859Z,991.87
2019-01-08T11:48:08.864Z,991.88
2019-01-08T11:49:08.833Z,991.92
2019-01-08T11:50:08.829Z,991.92
2019-01-08T11:51:08.815Z,991.91
2019-01-08T11:52:08.810Z,991.88
2019-01-08T11:53:08.793Z,991.89
2019-01-08T11:54:08.849Z,991.86
2019-01-08T11:55:08.767Z,991.83
2019-01-08T11:56:08.756Z,991.80
2019-01-08T11:57:08.749Z,991.78
2019-01-08T11:58:08.747Z,991.79
2019-01-08T11:59:08.727Z,991.79
2019-01-08T12:00:08.757Z,991.78
2019-01-08T12:01:08.709Z,991.77
2019-01-08T12:02:08.697Z,991.78
2019-01-08T12:03:08.681Z,991.79
2019-01-08T12:04:19.558Z,991.73
2019-01-08T12:05:08.662Z,991.80
2019-01-08T12:06:08.692Z,991.83
2019-01-08T12:07:08.642Z,991.79
2019-01-08T12:08:08.630Z,991.77
2019-01-08T12:09:08.626Z,991.78
2019-01-08T12:10:08.610Z,991.74
2019-01-08T12:11:08.598Z,991.76
2019-01-08T12:12:08.631Z,991.74
2019-01-08T12:13:08.577Z,991.75
2019-01-08T12:14:08.563Z,991.75
2019-01-08T12:15:08.552Z,991.73
2019-01-08T12:16:08.544Z,991.71
2019-01-08T12:17:08.541Z,991.71
2019-01-08T12:18:08.563Z,991.67
2019-01-08T12:19:08.518Z,991.73
2019-01-08T12:20:08.505Z,991.67
2019-01-08T12:21:08.495Z,991.67
2019-01-08T12:22:08.516Z,991.68
2019-01-08T12:23:08.473Z,991.71
2019-01-08T12:24:08.501Z,991.68
2019-01-08T12:25:08.450Z,991.65
2019-01-08T12:26:08.440Z,991.68
2019-01-08T12:27:08.429Z,991.63
2019-01-08T12:28:08.419Z,991.72